Time;durP1;ratioP1;P1;durP2;ratioP2;P2;SDS_P1;SDS_P2;PMS_P1;PMS_P2;Temp;Humidity;BMP_temperature;BMP_pressure;BME280_temperature;BME280_humidity;BME280_pressure;Samples;Min_cycle;Max_cycle;Signal;HPM_P1;HPM_P2
2023/04/04 00:00:26;;;;;;;41.72;14.45;;;;;;;;;;6277266;22;20039;-61
2023/04/04 00:02:54;;;;;;;35.95;14.30;;;;;;;;;;6277097;22;20090;-60
2023/04/04 00:05:21;;;;;;;56.10;15.82;;;;;;;;;;6250425;22;20011;-60
2023/04/04 00:07:49;;;;;;;36.97;13.98;;;;;;;;;;6276651;22;20011;-60
2023/04/04 00:10:16;;;;;;;30.73;10.95;;;;;;;;;;6277247;22;20457;-61
2023/04/04 00:12:44;;;;;;;57.42;18.00;;;;;;;;;;6277024;22;20012;-60
2023/04/04 00:15:11;;;;;;;31.88;13.55;;;;;;;;;;6277106;22;20015;-60
2023/04/04 00:17:39;;;;;;;28.05;11.18;;;;;;;;;;6276990;22;20314;-60
2023/04/04 00:20:07;;;;;;;48.08;15.60;;;;;;;;;;6276904;22;20020;-59
2023/04/04 00:22:34;;;;;;;25.77;10.90;;;;;;;;;;6276974;22;20016;-60
2023/04/04 00:25:02;;;;;;;29.80;11.18;;;;;;;;;;6276873;22;20012;-60
2023/04/04 00:27:29;;;;;;;;;;;;;;;;;;6275161;22;20016;-60
2023/04/04 00:29:56;;;;;;;;;;;;;;;;;;6276907;22;24099;-60
2023/04/04 00:32:24;;;;;;;48.70;14.13;;;;;;;;;;6277034;22;19915;-59
2023/04/04 00:34:52;;;;;;;;;;;;;;;;;;6247523;22;20011;-60
2023/04/04 00:37:20;;;;;;;;;;;;;;;;;;6222306;22;19930;-60
2023/04/04 00:39:48;;;;;;;19.38;6.53;;;;;;;;;;6249631;22;25102;-60
2023/04/04 00:42:16;;;;;;;1.65;1.35;;;;;;;;;;6276912;22;20337;-59
2023/04/04 00:44:44;;;;;;;1.98;1.88;;;;;;;;;;6249631;22;20020;-59
2023/04/04 00:47:12;;;;;;;0.03;0.03;;;;;;;;;;6249586;22;20027;-59
2023/04/04 00:49:40;;;;;;;0.00;0.00;;;;;;;;;;6249816;22;20015;-59
2023/04/04 00:52:07;;;;;;;6.43;2.90;;;;;;;;;;6276600;22;20024;-59
2023/04/04 00:54:35;;;;;;;1.38;0.47;;;;;;;;;;6249593;22;20077;-59
2023/04/04 00:57:02;;;;;;;;;;;;;;;;;;6249123;22;20098;-59
2023/04/04 00:59:30;;;;;;;0.00;0.00;;;;;;;;;;6276567;22;20114;-59
2023/04/04 01:01:59;;;;;;;0.00;0.00;;;;;;;;;;6276469;22;20023;-60
2023/04/04 01:04:30;;;;;;;0.00;0.00;;;;;;;;;;6249610;22;20019;-58
2023/04/04 01:06:59;;;;;;;1.15;1.15;;;;;;;;;;6276637;22;20030;-58
2023/04/04 01:09:26;;;;;;;;;;;;;;;;;;6276713;22;20532;-59
2023/04/04 01:11:55;;;;;;;42.50;12.52;;;;;;;;;;6249191;22;24058;-58
2023/04/04 01:14:25;;;;;;;1.02;1.02;;;;;;;;;;6249161;22;20078;-60
2023/04/04 01:16:53;;;;;;;0.00;0.00;;;;;;;;;;6249041;22;20015;-60
2023/04/04 01:19:26;;;;;;;;;;;;;;;;;;6248927;22;20058;-59
2023/04/04 01:21:53;;;;;;;;;;;;;;;;;;6248822;22;19915;-60
2023/04/04 01:24:21;;;;;;;;;;;;;;;;;;6249399;22;20321;-60
2023/04/04 01:26:55;;;;;;;;;;;;;;;;;;6249332;22;19922;-60
2023/04/04 01:29:23;;;;;;;;;;;;;;;;;;6249029;22;19978;-60
2023/04/04 01:31:50;;;;;;;;;;;;;;;;;;6249238;22;19915;-61
2023/04/04 01:34:17;;;;;;;;;;;;;;;;;;6248934;22;24076;-61
2023/04/04 01:37:11;;;;;;;42.08;12.63;;;;;;;;;;6276093;22;19915;-60
2023/04/04 01:39:45;;;;;;;64.57;16.85;;;;;;;;;;6244403;22;20095;-60
2023/04/04 01:42:14;;;;;;;54.97;15.43;;;;;;;;;;6249114;22;20020;-61
2023/04/04 01:44:44;;;;;;;39.90;12.50;;;;;;;;;;6249004;22;20118;-60
2023/04/04 01:47:13;;;;;;;51.50;14.40;;;;;;;;;;6248540;22;19922;-60
2023/04/04 01:49:42;;;;;;;47.10;13.50;;;;;;;;;;6249199;22;20047;-60
2023/04/04 01:52:09;;;;;;;;;;;;;;;;;;6249056;22;20050;-61
2023/04/04 01:54:36;;;;;;;;;;;;;;;;;;6248889;22;19915;-60
2023/04/04 01:57:04;;;;;;;;;;;;;;;;;;6276289;22;19957;-60
2023/04/04 01:59:32;;;;;;;;;;;;;;;;;;6248997;22;20317;-60
2023/04/04 02:02:00;;;;;;;;;;;;;;;;;;6249189;22;20372;-60
2023/04/04 02:04:29;;;;;;;;;;;;;;;;;;6275418;22;20012;-60
2023/04/04 02:06:56;;;;;;;;;;;;;;;;;;6249014;22;20052;-60
2023/04/04 02:09:24;;;;;;;0.00;0.00;;;;;;;;;;6249178;22;19915;-60
2023/04/04 02:11:52;;;;;;;;;;;;;;;;;;6248921;22;20019;-60
2023/04/04 02:14:19;;;;;;;;;;;;;;;;;;6223837;22;19915;-60
2023/04/04 02:16:47;;;;;;;0.00;0.00;;;;;;;;;;6248792;22;19915;-60
2023/04/04 02:19:14;;;;;;;;;;;;;;;;;;6274584;22;19915;-60
2023/04/04 02:21:42;;;;;;;;;;;;;;;;;;6274726;22;20058;-60
2023/04/04 02:24:10;;;;;;;;;;;;;;;;;;6274181;22;19922;-60
2023/04/04 02:26:37;;;;;;;0.70;0.30;;;;;;;;;;6274575;22;19915;-60
2023/04/04 02:29:06;;;;;;;;;;;;;;;;;;6274689;22;20072;-60
2023/04/04 02:31:33;;;;;;;0.70;0.40;;;;;;;;;;6276032;22;19915;-60
2023/04/04 02:34:01;;;;;;;;;;;;;;;;;;6274823;22;20028;-60
2023/04/04 02:36:30;;;;;;;1.50;1.40;;;;;;;;;;6276001;22;20484;-60
2023/04/04 02:38:58;;;;;;;;;;;;;;;;;;6274448;22;20070;-60
2023/04/04 02:41:26;;;;;;;0.30;0.30;;;;;;;;;;6274135;22;20244;-60
2023/04/04 02:43:54;;;;;;;;;;;;;;;;;;6274281;22;19921;-61
2023/04/04 02:46:21;;;;;;;4.65;1.75;;;;;;;;;;6276003;22;20028;-60
2023/04/04 02:48:56;;;;;;;;;;;;;;;;;;6274814;22;20019;-60
2023/04/04 02:51:24;;;;;;;0.00;0.00;;;;;;;;;;6274261;22;19969;-60
2023/04/04 02:53:52;;;;;;;2.17;1.75;;;;;;;;;;6275827;22;20039;-60
2023/04/04 02:56:24;;;;;;;0.20;0.20;;;;;;;;;;6274384;22;20016;-60
2023/04/04 02:58:52;;;;;;;0.00;0.00;;;;;;;;;;6275834;22;20438;-60
2023/04/04 03:01:19;;;;;;;0.00;0.00;;;;;;;;;;6276166;22;20020;-60
2023/04/04 03:03:47;;;;;;;0.00;0.00;;;;;;;;;;6274116;22;20024;-60
2023/04/04 03:06:15;;;;;;;0.10;0.10;;;;;;;;;;6274078;22;20360;-60
2023/04/04 03:08:42;;;;;;;0.00;0.00;;;;;;;;;;6274150;22;20343;-60
2023/04/04 03:11:10;;;;;;;0.00;0.00;;;;;;;;;;6274023;22;20060;-61
2023/04/04 03:13:37;;;;;;;0.00;0.00;;;;;;;;;;6274121;22;20110;-60
2023/04/04 03:16:05;;;;;;;0.00;0.00;;;;;;;;;;6274007;22;20019;-61
2023/04/04 03:18:47;;;;;;;0.10;0.10;;;;;;;;;;6274061;22;20438;-60
2023/04/04 03:21:17;;;;;;;0.00;0.00;;;;;;;;;;6273866;22;20323;-60
2023/04/04 03:23:45;;;;;;;0.00;0.00;;;;;;;;;;6274464;22;20039;-61
2023/04/04 03:26:12;;;;;;;0.00;0.00;;;;;;;;;;6274196;22;20022;-60
2023/04/04 03:28:40;;;;;;;0.00;0.00;;;;;;;;;;6275457;22;20070;-60
2023/04/04 03:31:09;;;;;;;0.00;0.00;;;;;;;;;;6276025;22;20016;-60
2023/04/04 03:33:41;;;;;;;0.00;0.00;;;;;;;;;;6274461;22;20020;-60
2023/04/04 03:36:11;;;;;;;0.00;0.00;;;;;;;;;;6273880;22;20021;-60
2023/04/04 03:38:38;;;;;;;0.00;0.00;;;;;;;;;;6275558;22;20016;-60
2023/04/04 03:41:06;;;;;;;3.42;1.45;;;;;;;;;;6274422;22;20446;-61
2023/04/04 03:43:34;;;;;;;0.00;0.00;;;;;;;;;;6275777;22;20030;-61
2023/04/04 03:46:03;;;;;;;0.00;0.00;;;;;;;;;;6277406;22;20380;-60
2023/04/04 03:48:31;;;;;;;0.80;0.75;;;;;;;;;;6250190;22;20047;-61
2023/04/04 03:50:58;;;;;;;0.00;0.00;;;;;;;;;;6275988;22;20023;-60
2023/04/04 03:53:27;;;;;;;0.00;0.00;;;;;;;;;;6275726;22;20073;-60
2023/04/04 03:55:58;;;;;;;2.50;2.33;;;;;;;;;;6275328;22;20450;-60
2023/04/04 03:58:27;;;;;;;0.00;0.00;;;;;;;;;;6275757;22;20096;-60
2023/04/04 04:00:55;;;;;;;0.00;0.00;;;;;;;;;;6277982;22;20019;-60
2023/04/04 04:03:25;;;;;;;0.00;0.00;;;;;;;;;;6275642;22;20361;-60
2023/04/04 04:05:54;;;;;;;0.00;0.00;;;;;;;;;;6275482;22;20102;-61
2023/04/04 04:08:21;;;;;;;0.00;0.00;;;;;;;;;;6276941;22;20106;-60
2023/04/04 04:10:51;;;;;;;0.00;0.00;;;;;;;;;;6275600;22;20050;-60
2023/04/04 04:13:19;;;;;;;0.00;0.00;;;;;;;;;;6275802;22;20515;-60
2023/04/04 04:15:46;;;;;;;0.00;0.00;;;;;;;;;;6275515;22;20047;-60
2023/04/04 04:18:19;;;;;;;0.00;0.00;;;;;;;;;;6275329;22;20030;-60
2023/04/04 04:20:48;;;;;;;0.00;0.00;;;;;;;;;;6275893;22;20037;-59
2023/04/04 04:23:15;;;;;;;0.00;0.00;;;;;;;;;;6275279;22;20118;-59
2023/04/04 04:25:47;;;;;;;0.90;0.85;;;;;;;;;;6275277;22;20020;-63
2023/04/04 04:28:17;;;;;;;0.00;0.00;;;;;;;;;;6274487;22;20027;-59
2023/04/04 04:30:46;;;;;;;0.00;0.00;;;;;;;;;;6274256;22;20065;-61
2023/04/04 04:33:18;;;;;;;0.00;0.00;;;;;;;;;;6274286;22;20450;-59
2023/04/04 04:36:03;;;;;;;0.00;0.00;;;;;;;;;;6275247;22;20020;-60
2023/04/04 04:38:41;;;;;;;0.00;0.00;;;;;;;;;;6275202;22;20518;-60
2023/04/04 04:41:08;;;;;;;0.00;0.00;;;;;;;;;;6275423;22;20054;-61
2023/04/04 04:43:42;;;;;;;0.00;0.00;;;;;;;;;;6275346;22;20020;-60
2023/04/04 04:46:10;;;;;;;0.00;0.00;;;;;;;;;;6273013;22;20070;-60
2023/04/04 04:48:41;;;;;;;0.00;0.00;;;;;;;;;;6274131;22;20028;-60
2023/04/04 04:51:10;;;;;;;0.00;0.00;;;;;;;;;;6274530;22;20073;-60
2023/04/04 04:53:43;;;;;;;0.00;0.00;;;;;;;;;;6275025;22;20039;-59
2023/04/04 04:56:11;;;;;;;0.00;0.00;;;;;;;;;;6275273;22;20023;-59
2023/04/04 04:58:43;;;;;;;0.00;0.00;;;;;;;;;;6275105;22;20026;-59
2023/04/04 05:01:14;;;;;;;0.00;0.00;;;;;;;;;;6275102;22;20024;-59
2023/04/04 05:03:42;;;;;;;0.00;0.00;;;;;;;;;;6275033;22;20023;-61
2023/04/04 05:06:13;;;;;;;0.00;0.00;;;;;;;;;;6275148;22;20020;-60
2023/04/04 05:08:42;;;;;;;0.00;0.00;;;;;;;;;;6275041;22;20024;-60
2023/04/04 05:11:21;;;;;;;0.00;0.00;;;;;;;;;;6275133;22;20016;-60
2023/04/04 05:13:49;;;;;;;41.28;15.88;;;;;;;;;;6275180;22;20091;-61
2023/04/04 05:16:19;;;;;;;0.00;0.00;;;;;;;;;;6274545;22;20279;-61
2023/04/04 05:18:49;;;;;;;0.00;0.00;;;;;;;;;;6273551;22;20023;-61
2023/04/04 05:21:18;;;;;;;0.00;0.00;;;;;;;;;;6274941;22;20047;-61
2023/04/04 05:23:48;;;;;;;0.00;0.00;;;;;;;;;;6274820;22;20042;-61
2023/04/04 05:26:17;;;;;;;0.00;0.00;;;;;;;;;;6274961;22;20020;-59
2023/04/04 05:28:48;;;;;;;0.00;0.00;;;;;;;;;;6274959;22;20023;-58
2023/04/04 05:31:16;;;;;;;0.00;0.00;;;;;;;;;;6276637;22;20106;-59
2023/04/04 05:33:44;;;;;;;0.00;0.00;;;;;;;;;;6274987;22;20030;-59
2023/04/04 05:36:41;;;;;;;0.00;0.00;;;;;;;;;;6261861;22;20070;-59
2023/04/04 05:39:09;;;;;;;0.03;0.03;;;;;;;;;;6274791;22;20024;-59
2023/04/04 05:41:45;;;;;;;0.55;0.55;;;;;;;;;;6274870;22;20449;-59
2023/04/04 05:44:18;;;;;;;0.00;0.00;;;;;;;;;;6276140;22;20319;-59
2023/04/04 05:46:45;;;;;;;0.00;0.00;;;;;;;;;;6274655;22;20027;-64
2023/04/04 05:49:13;;;;;;;84.88;19.83;;;;;;;;;;6274598;22;20029;-62
2023/04/04 05:51:47;;;;;;;0.52;0.52;;;;;;;;;;6274565;22;20020;-60
2023/04/04 05:54:16;;;;;;;0.00;0.00;;;;;;;;;;6274691;22;20054;-60
2023/04/04 05:56:44;;;;;;;0.00;0.00;;;;;;;;;;6249445;22;20103;-61
2023/04/04 05:59:23;;;;;;;0.00;0.00;;;;;;;;;;6274980;22;20389;-60
2023/04/04 06:01:58;;;;;;;0.10;0.10;;;;;;;;;;6274541;22;20050;-61
2023/04/04 06:04:26;;;;;;;0.00;0.00;;;;;;;;;;6274343;22;20030;-60
2023/04/04 06:06:56;;;;;;;0.00;0.00;;;;;;;;;;6274655;22;20104;-60
2023/04/04 06:09:24;;;;;;;0.00;0.00;;;;;;;;;;6274571;22;20507;-61
2023/04/04 06:11:51;;;;;;;2.88;2.65;;;;;;;;;;6276075;22;20020;-61
2023/04/04 06:14:19;;;;;;;0.00;0.00;;;;;;;;;;6274602;22;20366;-60
2023/04/04 06:16:48;;;;;;;0.00;0.00;;;;;;;;;;6274424;22;20023;-61
2023/04/04 06:19:15;;;;;;;0.00;0.00;;;;;;;;;;6274703;22;20019;-61
2023/04/04 06:21:43;;;;;;;55.58;18.88;;;;;;;;;;6274722;22;20511;-61
2023/04/04 06:24:12;;;;;;;0.00;0.00;;;;;;;;;;6274520;22;20450;-60
2023/04/04 06:26:41;;;;;;;0.00;0.00;;;;;;;;;;6276482;22;20011;-60
2023/04/04 06:29:08;;;;;;;62.55;17.40;;;;;;;;;;6275714;22;20026;-60
2023/04/04 06:31:38;;;;;;;71.03;19.30;;;;;;;;;;6274518;22;20016;-60
2023/04/04 06:34:10;;;;;;;0.00;0.00;;;;;;;;;;6276126;22;20019;-60
2023/04/04 06:36:50;;;;;;;0.00;0.00;;;;;;;;;;6274401;22;20016;-63
2023/04/04 06:39:18;;;;;;;61.70;16.83;;;;;;;;;;6274326;22;20016;-61
2023/04/04 06:41:47;;;;;;;56.50;17.20;;;;;;;;;;6274336;22;20086;-61
2023/04/04 06:44:15;;;;;;;79.90;19.35;;;;;;;;;;6274143;22;20020;-61
2023/04/04 06:46:43;;;;;;;77.28;19.50;;;;;;;;;;6275821;22;20500;-60
2023/04/04 06:49:11;;;;;;;108.78;24.98;;;;;;;;;;6274534;22;20030;-61
2023/04/04 06:51:41;;;;;;;100.60;21.83;;;;;;;;;;6274269;22;20039;-61
2023/04/04 06:54:08;;;;;;;78.63;21.08;;;;;;;;;;6274236;22;20087;-61
2023/04/04 06:56:36;;;;;;;71.47;17.88;;;;;;;;;;6275734;22;20016;-61
2023/04/04 06:59:03;;;;;;;95.45;19.80;;;;;;;;;;6274489;22;20103;-61
2023/04/04 07:01:33;;;;;;;77.03;21.52;;;;;;;;;;6274025;22;20099;-61
2023/04/04 07:04:00;;;;;;;49.05;13.90;;;;;;;;;;6274132;22;20030;-60
2023/04/04 07:06:28;;;;;;;86.45;19.20;;;;;;;;;;6276181;22;20043;-61
2023/04/04 07:08:56;;;;;;;82.30;21.33;;;;;;;;;;6274187;22;20491;-61
2023/04/04 07:11:23;;;;;;;66.47;18.40;;;;;;;;;;6274053;22;20015;-60
2023/04/04 07:13:51;;;;;;;81.68;19.00;;;;;;;;;;6275771;22;20438;-61
2023/04/04 07:16:18;;;;;;;70.68;15.68;;;;;;;;;;6276330;22;20442;-61
2023/04/04 07:18:46;;;;;;;50.70;14.15;;;;;;;;;;6277592;22;20016;-60
2023/04/04 07:21:13;;;;;;;5.13;3.05;;;;;;;;;;6277565;22;20121;-60
2023/04/04 07:23:41;;;;;;;45.35;13.80;;;;;;;;;;6277289;22;20023;-59
2023/04/04 07:26:08;;;;;;;73.60;17.23;;;;;;;;;;6277487;22;20074;-59
2023/04/04 07:28:36;;;;;;;93.57;19.80;;;;;;;;;;6277559;22;20065;-60
2023/04/04 07:31:03;;;;;;;63.92;14.30;;;;;;;;;;6277569;22;20020;-60
2023/04/04 07:33:31;;;;;;;57.85;15.32;;;;;;;;;;6250617;22;20019;-60
2023/04/04 07:36:01;;;;;;;75.78;19.15;;;;;;;;;;6277646;22;20515;-60
2023/04/04 07:38:28;;;;;;;71.78;17.02;;;;;;;;;;6277476;22;20023;-60
2023/04/04 07:40:56;;;;;;;67.60;16.42;;;;;;;;;;6277326;22;20081;-60
2023/04/04 07:43:23;;;;;;;65.25;15.63;;;;;;;;;;6277651;22;20338;-64
2023/04/04 07:45:51;;;;;;;76.07;19.77;;;;;;;;;;6277335;22;20027;-60
2023/04/04 07:48:18;;;;;;;64.93;18.52;;;;;;;;;;6277240;22;20334;-60
2023/04/04 07:50:49;;;;;;;107.55;20.75;;;;;;;;;;6277274;22;20016;-60
2023/04/04 07:53:16;;;;;;;104.28;23.88;;;;;;;;;;6277395;22;20015;-60
2023/04/04 07:55:44;;;;;;;104.43;19.27;;;;;;;;;;6277187;22;20023;-61
2023/04/04 07:58:11;;;;;;;62.92;17.58;;;;;;;;;;6277258;22;20338;-61
2023/04/04 08:00:39;;;;;;;104.78;20.80;;;;;;;;;;6277165;22;20020;-60
2023/04/04 08:03:07;;;;;;;89.78;22.40;;;;;;;;;;6277057;22;20446;-60
2023/04/04 08:05:34;;;;;;;77.97;18.77;;;;;;;;;;6277352;22;20019;-60
2023/04/04 08:08:02;;;;;;;81.82;19.58;;;;;;;;;;6277427;22;20079;-60
2023/04/04 08:10:29;;;;;;;116.10;25.30;;;;;;;;;;6277251;22;20023;-60
2023/04/04 08:12:57;;;;;;;93.85;18.80;;;;;;;;;;6277229;22;20016;-60
2023/04/04 08:15:24;;;;;;;55.95;15.23;;;;;;;;;;6277049;22;20388;-60
2023/04/04 08:17:52;;;;;;;71.93;19.52;;;;;;;;;;6276993;22;20334;-61
2023/04/04 08:20:20;;;;;;;29.67;6.93;;;;;;;;;;6277149;22;20338;-60
2023/04/04 08:22:47;;;;;;;0.00;0.00;;;;;;;;;;6276979;22;20333;-61
2023/04/04 08:25:15;;;;;;;0.98;0.98;;;;;;;;;;6277344;22;20311;-61
2023/04/04 08:27:43;;;;;;;0.00;0.00;;;;;;;;;;6276964;22;20456;-60
2023/04/04 08:30:14;;;;;;;0.00;0.00;;;;;;;;;;6276968;22;20393;-60
2023/04/04 08:32:44;;;;;;;0.00;0.00;;;;;;;;;;6276982;22;20454;-60
2023/04/04 08:35:12;;;;;;;0.00;0.00;;;;;;;;;;6277067;22;20015;-61
2023/04/04 08:37:44;;;;;;;0.00;0.00;;;;;;;;;;6277589;22;20038;-62
2023/04/04 08:40:12;;;;;;;0.00;0.00;;;;;;;;;;6277432;22;20334;-60
2023/04/04 08:42:42;;;;;;;3.78;1.38;;;;;;;;;;6276979;22;20027;-60
2023/04/04 08:45:10;;;;;;;71.43;15.00;;;;;;;;;;6276786;22;20066;-60
2023/04/04 08:47:39;;;;;;;59.80;14.85;;;;;;;;;;6249626;22;20373;-61
2023/04/04 08:50:07;;;;;;;71.20;17.80;;;;;;;;;;6276758;22;20091;-60
2023/04/04 08:52:35;;;;;;;77.07;15.05;;;;;;;;;;6276839;22;20011;-60
2023/04/04 08:55:04;;;;;;;76.40;18.70;;;;;;;;;;6276594;22;20490;-60
2023/04/04 08:57:32;;;;;;;48.88;14.05;;;;;;;;;;6276679;22;20465;-60
2023/04/04 09:00:01;;;;;;;78.82;19.77;;;;;;;;;;6277002;22;20393;-61
2023/04/04 09:02:31;;;;;;;67.70;18.02;;;;;;;;;;6277032;22;20065;-61
2023/04/04 09:05:00;;;;;;;67.30;15.48;;;;;;;;;;6276485;22;20022;-60
2023/04/04 09:07:33;;;;;;;64.03;16.48;;;;;;;;;;6276482;22;20062;-60
2023/04/04 09:10:04;;;;;;;59.45;17.25;;;;;;;;;;6276836;22;20023;-60
2023/04/04 09:12:35;;;;;;;53.17;16.17;;;;;;;;;;6276478;22;20315;-61
2023/04/04 09:15:02;;;;;;;80.85;20.35;;;;;;;;;;6276930;22;20012;-60
2023/04/04 09:17:30;;;;;;;54.97;14.50;;;;;;;;;;6276336;22;20026;-61
2023/04/04 09:20:04;;;;;;;68.70;19.35;;;;;;;;;;6276650;22;20011;-60
2023/04/04 09:22:31;;;;;;;53.33;13.88;;;;;;;;;;6276681;22;20383;-61
2023/04/04 09:24:59;;;;;;;39.42;12.82;;;;;;;;;;6250014;22;20449;-61
2023/04/04 09:27:26;;;;;;;47.50;13.40;;;;;;;;;;6249952;22;20082;-61
2023/04/04 09:29:55;;;;;;;48.05;13.02;;;;;;;;;;6276430;22;20072;-60
2023/04/04 09:32:23;;;;;;;43.65;13.80;;;;;;;;;;6276612;22;20016;-60
2023/04/04 09:34:51;;;;;;;72.75;22.30;;;;;;;;;;6276912;22;20345;-62
2023/04/04 09:37:19;;;;;;;59.33;15.95;;;;;;;;;;6276384;22;20018;-60
2023/04/04 09:39:46;;;;;;;52.22;14.23;;;;;;;;;;6276559;22;20098;-60
2023/04/04 09:42:15;;;;;;;50.00;16.70;;;;;;;;;;6276313;22;20015;-60
2023/04/04 09:44:43;;;;;;;38.30;12.45;;;;;;;;;;6276216;22;20020;-61
2023/04/04 09:47:32;;;;;;;39.65;12.05;;;;;;;;;;6276295;22;20016;-60
2023/04/04 09:50:00;;;;;;;0.32;0.32;;;;;;;;;;6276218;22;20453;-61
2023/04/04 09:52:32;;;;;;;0.00;0.00;;;;;;;;;;6276173;22;20430;-60
2023/04/04 09:55:00;;;;;;;0.00;0.00;;;;;;;;;;6276293;22;20069;-60
2023/04/04 09:57:32;;;;;;;0.13;0.13;;;;;;;;;;6275967;22;20342;-60
2023/04/04 10:00:00;;;;;;;0.00;0.00;;;;;;;;;;6249259;22;20020;-61
2023/04/04 10:02:30;;;;;;;60.13;17.05;;;;;;;;;;6249105;22;20042;-61
2023/04/04 10:04:58;;;;;;;67.97;16.63;;;;;;;;;;6276034;22;20020;-61
2023/04/04 10:07:33;;;;;;;0.00;0.00;;;;;;;;;;6251123;22;20015;-60
2023/04/04 10:10:01;;;;;;;0.43;0.22;;;;;;;;;;6276625;22;20026;-61
2023/04/04 10:12:30;;;;;;;60.92;17.48;;;;;;;;;;6248686;22;20047;-60
2023/04/04 10:14:58;;;;;;;45.08;14.73;;;;;;;;;;6276113;22;20100;-61
2023/04/04 10:17:46;;;;;;;0.00;0.00;;;;;;;;;;6275900;22;20019;-61
2023/04/04 10:20:14;;;;;;;0.00;0.00;;;;;;;;;;6276179;22;20307;-61
2023/04/04 10:22:43;;;;;;;0.00;0.00;;;;;;;;;;6276077;22;20020;-61
2023/04/04 10:25:11;;;;;;;0.00;0.00;;;;;;;;;;6276161;22;20654;-61
2023/04/04 10:27:39;;;;;;;1.27;1.27;;;;;;;;;;6275987;22;20015;-60
2023/04/04 10:30:07;;;;;;;0.00;0.00;;;;;;;;;;6249084;22;20019;-60
2023/04/04 10:32:44;;;;;;;77.30;20.60;;;;;;;;;;6248935;22;20508;-61
2023/04/04 10:35:12;;;;;;;80.35;22.92;;;;;;;;;;6275930;22;20027;-61
2023/04/04 10:37:52;;;;;;;74.95;22.23;;;;;;;;;;6275782;22;20460;-61
2023/04/04 10:40:21;;;;;;;42.85;10.00;;;;;;;;;;6276337;22;20020;-61
2023/04/04 10:42:49;;;;;;;0.00;0.00;;;;;;;;;;6275890;22;20023;-61
2023/04/04 10:45:17;;;;;;;0.00;0.00;;;;;;;;;;6275723;22;20091;-61
2023/04/04 10:47:48;;;;;;;0.00;0.00;;;;;;;;;;6275875;22;20011;-62
2023/04/04 10:50:16;;;;;;;0.00;0.00;;;;;;;;;;6249456;22;20138;-61
2023/04/04 10:52:45;;;;;;;0.80;0.80;;;;;;;;;;6278339;22;20030;-60
2023/04/04 10:55:13;;;;;;;58.33;16.70;;;;;;;;;;6278288;22;20018;-61
2023/04/04 10:57:51;;;;;;;0.00;0.00;;;;;;;;;;6277855;22;20016;-62
2023/04/04 11:00:22;;;;;;;0.00;0.00;;;;;;;;;;6277900;22;20020;-61
2023/04/04 11:02:53;;;;;;;0.00;0.00;;;;;;;;;;6278137;22;20091;-61
2023/04/04 11:05:22;;;;;;;0.00;0.00;;;;;;;;;;6277790;22;20051;-61
2023/04/04 11:07:57;;;;;;;0.00;0.00;;;;;;;;;;6278105;22;20326;-61
2023/04/04 11:10:32;;;;;;;0.00;0.00;;;;;;;;;;6277901;22;20091;-60
2023/04/04 11:13:07;;;;;;;0.00;0.00;;;;;;;;;;6277823;22;20456;-61
2023/04/04 11:15:46;;;;;;;0.00;0.00;;;;;;;;;;6278154;22;20012;-60
2023/04/04 11:18:14;;;;;;;0.00;0.00;;;;;;;;;;6251021;22;20337;-61
2023/04/04 11:21:04;;;;;;;0.00;0.00;;;;;;;;;;6278449;22;20016;-61
2023/04/04 11:23:40;;;;;;;0.00;0.00;;;;;;;;;;6277753;22;20020;-60
2023/04/04 11:26:07;;;;;;;0.00;0.00;;;;;;;;;;6277614;22;20338;-60
2023/04/04 11:28:35;;;;;;;0.00;0.00;;;;;;;;;;6277931;22;20023;-61
2023/04/04 11:31:15;;;;;;;0.00;0.00;;;;;;;;;;6277804;22;20457;-61
2023/04/04 11:33:52;;;;;;;0.00;0.00;;;;;;;;;;6278008;22;20095;-61
2023/04/04 11:36:35;;;;;;;4.15;2.22;;;;;;;;;;6277673;22;20086;-60
2023/04/04 11:39:06;;;;;;;0.45;0.45;;;;;;;;;;6250358;22;20022;-61
2023/04/04 11:41:44;;;;;;;0.00;0.00;;;;;;;;;;6277884;22;20346;-60
2023/04/04 11:44:11;;;;;;;0.00;0.00;;;;;;;;;;6277760;22;20022;-61
2023/04/04 11:46:38;;;;;;;0.00;0.00;;;;;;;;;;6250656;22;20023;-61
2023/04/04 11:49:06;;;;;;;0.00;0.00;;;;;;;;;;6277562;22;20011;-62
2023/04/04 11:51:34;;;;;;;1.27;1.27;;;;;;;;;;6250669;22;20016;-61
2023/04/04 11:54:01;;;;;;;0.05;0.05;;;;;;;;;;6277171;22;20016;-61
2023/04/04 11:56:33;;;;;;;0.00;0.00;;;;;;;;;;6277400;22;20024;-61
2023/04/04 11:59:04;;;;;;;0.00;0.00;;;;;;;;;;6277385;22;20011;-61
2023/04/04 12:01:39;;;;;;;0.00;0.00;;;;;;;;;;6250209;22;20026;-61
2023/04/04 12:04:06;;;;;;;0.00;0.00;;;;;;;;;;6277291;22;20128;-61
2023/04/04 12:06:37;;;;;;;0.00;0.00;;;;;;;;;;6277155;22;20386;-62
2023/04/04 12:09:05;;;;;;;0.00;0.00;;;;;;;;;;6250710;22;20079;-61
2023/04/04 12:11:36;;;;;;;0.00;0.00;;;;;;;;;;6277497;22;20019;-61
2023/04/04 12:14:03;;;;;;;0.00;0.00;;;;;;;;;;6277007;22;20015;-61
2023/04/04 12:16:31;;;;;;;0.00;0.00;;;;;;;;;;6277038;22;20046;-60
2023/04/04 12:19:01;;;;;;;0.00;0.00;;;;;;;;;;6277283;22;20020;-61
2023/04/04 12:21:32;;;;;;;0.00;0.00;;;;;;;;;;6277333;22;20019;-60
2023/04/04 12:23:59;;;;;;;0.00;0.00;;;;;;;;;;6277063;22;20039;-60
2023/04/04 12:26:28;;;;;;;0.00;0.00;;;;;;;;;;6250068;22;20031;-63
2023/04/04 12:28:57;;;;;;;0.00;0.00;;;;;;;;;;6277183;22;20095;-61
2023/04/04 12:31:27;;;;;;;0.00;0.00;;;;;;;;;;6277241;22;20024;-61
2023/04/04 12:33:55;;;;;;;27.02;11.57;;;;;;;;;;6277146;22;20066;-61
2023/04/04 12:36:26;;;;;;;28.23;10.07;;;;;;;;;;6277071;22;20066;-60
2023/04/04 12:39:01;;;;;;;31.88;10.18;;;;;;;;;;6277061;22;20385;-59
2023/04/04 12:41:28;;;;;;;24.58;8.18;;;;;;;;;;6276876;22;20036;-60
2023/04/04 12:44:03;;;;;;;0.00;0.00;;;;;;;;;;6277187;22;20019;-61
2023/04/04 12:46:38;;;;;;;0.00;0.00;;;;;;;;;;6276890;22;20090;-60
2023/04/04 12:49:07;;;;;;;0.00;0.00;;;;;;;;;;6276793;22;20046;-60
2023/04/04 12:51:35;;;;;;;0.00;0.00;;;;;;;;;;6277334;22;20389;-60
2023/04/04 12:54:05;;;;;;;0.00;0.00;;;;;;;;;;6276835;22;20034;-60
2023/04/04 12:56:35;;;;;;;0.00;0.00;;;;;;;;;;6276695;22;20066;-61
2023/04/04 12:59:04;;;;;;;0.00;0.00;;;;;;;;;;6276767;22;20087;-61
2023/04/04 13:01:32;;;;;;;0.00;0.00;;;;;;;;;;6276893;22;20050;-60
2023/04/04 13:04:03;;;;;;;0.00;0.00;;;;;;;;;;6277201;22;20019;-60
2023/04/04 13:06:31;;;;;;;0.00;0.00;;;;;;;;;;6249784;22;20041;-61
2023/04/04 13:08:59;;;;;;;0.10;0.10;;;;;;;;;;6276851;22;20053;-61
2023/04/04 13:11:46;;;;;;;0.00;0.00;;;;;;;;;;6276488;22;20346;-61
2023/04/04 13:14:13;;;;;;;0.00;0.00;;;;;;;;;;6275998;22;20015;-61
2023/04/04 13:16:41;;;;;;;0.00;0.00;;;;;;;;;;6276960;22;20329;-60
2023/04/04 13:19:09;;;;;;;0.00;0.00;;;;;;;;;;6276223;22;20077;-60
2023/04/04 13:21:39;;;;;;;0.00;0.00;;;;;;;;;;6276349;22;20094;-60
2023/04/04 13:24:07;;;;;;;0.00;0.00;;;;;;;;;;6276454;22;20016;-60
2023/04/04 13:26:34;;;;;;;0.00;0.00;;;;;;;;;;6276253;22;20023;-61
2023/04/04 13:29:02;;;;;;;0.00;0.00;;;;;;;;;;6249585;22;20039;-60
2023/04/04 13:31:30;;;;;;;0.00;0.00;;;;;;;;;;6276691;22;20023;-62
2023/04/04 13:33:58;;;;;;;0.00;0.00;;;;;;;;;;6276366;22;20015;-61
2023/04/04 13:36:27;;;;;;;0.00;0.00;;;;;;;;;;6276297;22;20065;-60
2023/04/04 13:38:54;;;;;;;0.00;0.00;;;;;;;;;;6249565;22;20015;-61
2023/04/04 13:41:22;;;;;;;0.00;0.00;;;;;;;;;;6249291;22;20012;-61
2023/04/04 13:43:49;;;;;;;0.00;0.00;;;;;;;;;;6276336;22;20015;-60
2023/04/04 13:46:17;;;;;;;0.00;0.00;;;;;;;;;;6248665;22;20463;-60
2023/04/04 13:48:44;;;;;;;0.00;0.00;;;;;;;;;;6275991;22;20091;-59
2023/04/04 13:51:12;;;;;;;0.00;0.00;;;;;;;;;;6275608;22;20034;-59
2023/04/04 13:53:40;;;;;;;0.10;0.10;;;;;;;;;;6276011;22;20015;-59
2023/04/04 13:56:08;;;;;;;0.13;0.13;;;;;;;;;;6247654;22;20019;-58
2023/04/04 13:58:38;;;;;;;0.55;0.55;;;;;;;;;;6274845;22;20103;-58
2023/04/04 14:01:05;;;;;;;0.25;0.25;;;;;;;;;;6275849;22;20016;-58
2023/04/04 14:03:33;;;;;;;0.00;0.00;;;;;;;;;;6248891;22;20020;-58
2023/04/04 14:06:01;;;;;;;0.00;0.00;;;;;;;;;;6275728;22;20501;-59
2023/04/04 14:08:36;;;;;;;0.10;0.10;;;;;;;;;;6276040;22;20016;-58
2023/04/04 14:11:04;;;;;;;0.80;0.80;;;;;;;;;;6275749;22;20019;-58
2023/04/04 14:13:32;;;;;;;0.00;0.00;;;;;;;;;;6275844;22;20015;-59
2023/04/04 14:15:59;;;;;;;0.00;0.00;;;;;;;;;;6275395;22;20038;-58
2023/04/04 14:18:27;;;;;;;0.00;0.00;;;;;;;;;;6275423;22;20011;-59
2023/04/04 14:20:54;;;;;;;0.00;0.00;;;;;;;;;;6275591;22;20015;-59
2023/04/04 14:23:22;;;;;;;0.20;0.20;;;;;;;;;;6275694;22;20065;-58
2023/04/04 14:25:50;;;;;;;0.00;0.00;;;;;;;;;;6275292;22;20046;-58
2023/04/04 14:28:18;;;;;;;0.15;0.15;;;;;;;;;;6275516;22;20016;-59
2023/04/04 14:30:45;;;;;;;0.00;0.00;;;;;;;;;;6275389;22;20336;-59
2023/04/04 14:33:13;;;;;;;0.25;0.25;;;;;;;;;;6275621;22;20069;-58
2023/04/04 14:35:40;;;;;;;0.00;0.00;;;;;;;;;;6275521;22;20082;-59
2023/04/04 14:38:08;;;;;;;0.00;0.00;;;;;;;;;;6275630;22;20369;-59
2023/04/04 14:40:36;;;;;;;1.75;1.65;;;;;;;;;;6275182;22;20760;-59
2023/04/04 14:43:03;;;;;;;0.00;0.00;;;;;;;;;;6275518;22;20038;-59
2023/04/04 14:45:31;;;;;;;0.20;0.20;;;;;;;;;;6275437;22;20040;-59
2023/04/04 14:47:59;;;;;;;0.00;0.00;;;;;;;;;;6275796;22;20377;-59
2023/04/04 14:50:27;;;;;;;0.15;0.15;;;;;;;;;;6275550;22;20027;-59
2023/04/04 14:52:55;;;;;;;0.00;0.00;;;;;;;;;;6275211;22;20012;-58
2023/04/04 14:55:23;;;;;;;0.05;0.05;;;;;;;;;;6275064;22;20089;-58